Altai — V7XL4 — position and weather

sailwx.info

Track history (hours):
 
Tides and Currents Weather Stations Pressure Air Temp Water Temp Dewpoint Dewpoint Depression Visibility Wind Speed Wind Dir Waves Ship Positions

Altai

Last reported at 2018-Jun-17 00:31 UTC. Time now 2018-Jun-19 23:28 UTC.
Position N 43°06' E 005°02'.

Length 249 m; draft 8 m.

Type: Tanker. MMSI: 538004508.

Date/timePositionNaut miles runAvg speedWind from/ knotsBaromVisibWave heightAir tempDewpointWater temp
2018-Jun-17 00:31N 43°06' E 005°02'113.9
2018-Jun-17 00:28N 43°07' E 005°02'613.7
2018-Jun-16 23:59N 43°13' E 005°00'613.4
2018-Jun-16 23:30N 43°20' E 004°59'5 9.7
2018-Jun-16 23:00N 43°24' E 004°55'1 0.0
2018-Jun-15 20:08N 43°24' E 004°53'0 0.6
2018-Jun-15 20:00N 43°24' E 004°53'1 2.8
2018-Jun-15 19:30N 43°24' E 004°55'3 6.7
2018-Jun-15 19:00N 43°22' E 004°59'1 1.9
2018-Jun-15 18:30N 43°21' E 004°60'0 0.1
2018-Jun-15 18:00N 43°21' E 004°60'0 0.1
2018-Jun-15 17:30N 43°21' E 004°60'0 0.1
2018-Jun-15 17:00N 43°21' E 004°60'0 0.0
2018-Jun-15 16:30N 43°21' E 004°60'0 0.1
2018-Jun-15 16:00N 43°21' E 004°60'0 0.0
2018-Jun-15 15:27N 43°21' E 004°60'0 0.0
2018-Jun-15 15:00N 43°21' E 004°60'0 0.0
2018-Jun-15 14:30N 43°21' E 004°60'0 0.0
2018-Jun-15 14:00N 43°21' E 004°60'0 0.0
2018-Jun-15 13:30N 43°21' E 004°60'0 0.0
2018-Jun-15 13:00N 43°21' E 004°60'0 0.0
2018-Jun-15 12:30N 43°21' E 004°60'0 0.1
2018-Jun-15 12:00N 43°21' E 004°60'0 0.0
2018-Jun-15 11:30N 43°21' E 004°60'0 0.0
2018-Jun-15 11:00N 43°21' E 004°60'0 0.0
2018-Jun-15 10:27N 43°21' E 004°60'0 0.2
2018-Jun-15 10:00N 43°21' E 004°60'0 0.2
2018-Jun-15 09:30N 43°21' E 004°60'2 4.2
2018-Jun-15 09:00N 43°19' E 004°60'  
2018-Jun-09 17:47N 40°47' E 027°47'412.4
2018-Jun-09 17:28N 40°48' E 027°52'1412.8
2018-Jun-09 16:22N 40°50' E 028°11'2612.3
2018-Jun-09 14:15N 40°54' E 028°45'811.8
2018-Jun-09 13:33N 40°57' E 028°55'211.8
2018-Jun-09 13:21N 40°58' E 028°57'1610.7
2018-Jun-09 11:51N 41°12' E 029°07'3 7.8
2018-Jun-09 11:30N 41°15' E 029°08'3 6.8
2018-Jun-09 11:00N 41°17' E 029°05'4 7.0
2018-Jun-09 10:30N 41°18' E 029°00'2 3.3
2018-Jun-09 10:00N 41°17' E 028°58'0 0.2
2018-Jun-09 09:29N 41°17' E 028°58'0 0.1
2018-Jun-09 08:47N 41°17' E 028°58'0 0.1
2018-Jun-09 08:29N 41°17' E 028°58'0 0.0
2018-Jun-09 07:53N 41°17' E 028°58'0 0.1
2018-Jun-09 07:29N 41°17' E 028°58'0 0.1
2018-Jun-09 06:59N 41°17' E 028°58'0 0.1
2018-Jun-09 05:05N 41°17' E 028°58'0 0.0
2018-Jun-09 03:59N 41°17' E 028°58'0 0.0
2018-Jun-09 03:29N 41°17' E 028°58'0 0.0
2018-Jun-09 02:53N 41°17' E 028°58'0 0.0
2018-Jun-09 02:26N 41°17' E 028°58'0 0.0
2018-Jun-09 01:59N 41°17' E 028°58'0 0.0
2018-Jun-09 01:26N 41°17' E 028°58'0 0.0
2018-Jun-09 00:59N 41°17' E 028°58'0 0.0
2018-Jun-08 20:53N 41°17' E 028°58'0 0.0
2018-Jun-08 19:02N 41°17' E 028°58'0 0.0
2018-Jun-08 18:59N 41°17' E 028°58'0 0.0
2018-Jun-08 16:56N 41°17' E 028°58'15 3.7
2018-Jun-08 12:53N 41°28' E 029°12'2 4.2
2018-Jun-08 12:28N 41°29' E 029°14'0 0.4
2018-Jun-08 11:49N 41°29' E 029°14'4 2.0
2018-Jun-08 09:50N 41°30' E 029°19'2212.0
2018-Jun-08 08:02N 41°38' E 029°46'312.3
2018-Jun-08 07:49N 41°40' E 029°49'412.4
2018-Jun-08 07:30N 41°41' E 029°54'812.4
2018-Jun-08 06:51N 41°45' E 030°03'412.5
2018-Jun-08 06:30N 41°47' E 030°08'612.6
2018-Jun-08 06:00N 41°50' E 030°16'612.6
2018-Jun-08 05:30N 41°53' E 030°23'1712.4
2018-Jun-08 04:05N 42°00' E 030°45'112.5
2018-Jun-08 04:00N 42°01' E 030°46'912.5
2018-Jun-08 03:15N 42°05' E 030°57'612.6
2018-Jun-08 02:47N 42°08' E 031°04'412.7
2018-Jun-08 02:30N 42°09' E 031°09'612.7
2018-Jun-08 02:00N 42°12' E 031°16'712.7
2018-Jun-08 01:28N 42°15' E 031°25'612.5
2018-Jun-08 00:59N 42°18' E 031°32'612.6
2018-Jun-08 00:30N 42°20' E 031°39'612.6
2018-Jun-08 00:00N 42°23' E 031°47'612.5
2018-Jun-07 23:30N 42°26' E 031°54'1012.3
2018-Jun-07 22:43N 42°30' E 032°06'312.1
2018-Jun-07 22:30N 42°32' E 032°09'912.2
2018-Jun-07 21:47N 42°36' E 032°20'1612.3
2018-Jun-07 20:31N 42°42' E 032°39'012.2
2018-Jun-07 20:29N 42°43' E 032°39'612.2
2018-Jun-07 20:00N 42°45' E 032°47'612.2
2018-Jun-07 19:29N 42°48' E 032°54'712.2
2018-Jun-07 18:54N 42°51' E 033°03'512.2
2018-Jun-07 18:30N 42°54' E 033°09'20712.7
2018-Jun-07 02:16N 44°27' E 037°24'412.5
2018-Jun-07 01:59N 44°28' E 037°28'612.6
2018-Jun-07 01:30N 44°31' E 037°36'611.4
2018-Jun-07 01:00N 44°35' E 037°41'  
Track history (hours):
 
Tides and Currents Weather Stations Pressure Air Temp Water Temp Dewpoint Dewpoint Depression Visibility Wind Speed Wind Dir Waves Ship Positions

Altai

Last reported at 2018-Jun-17 00:31 UTC. Time now 2018-Jun-19 23:28 UTC.
Position N 43°06' E 005°02'.

Length 249 m; draft 8 m.

Type: Tanker. MMSI: 538004508.

Date/timePositionNaut miles runAvg speedWind from/ knotsBaromVisibWave heightAir tempDewpointWater temp
2018-Jun-17 00:31N 43°06' E 005°02'113.9
2018-Jun-17 00:28N 43°07' E 005°02'613.7
2018-Jun-16 23:59N 43°13' E 005°00'613.4
2018-Jun-16 23:30N 43°20' E 004°59'5 9.7
2018-Jun-16 23:00N 43°24' E 004°55'1 0.0
2018-Jun-15 20:08N 43°24' E 004°53'0 0.6
2018-Jun-15 20:00N 43°24' E 004°53'1 2.8
2018-Jun-15 19:30N 43°24' E 004°55'3 6.7
2018-Jun-15 19:00N 43°22' E 004°59'1 1.9
2018-Jun-15 18:30N 43°21' E 004°60'0 0.1
2018-Jun-15 18:00N 43°21' E 004°60'0 0.1
2018-Jun-15 17:30N 43°21' E 004°60'0 0.1
2018-Jun-15 17:00N 43°21' E 004°60'0 0.0
2018-Jun-15 16:30N 43°21' E 004°60'0 0.1
2018-Jun-15 16:00N 43°21' E 004°60'0 0.0
2018-Jun-15 15:27N 43°21' E 004°60'0 0.0
2018-Jun-15 15:00N 43°21' E 004°60'0 0.0
2018-Jun-15 14:30N 43°21' E 004°60'0 0.0
2018-Jun-15 14:00N 43°21' E 004°60'0 0.0
2018-Jun-15 13:30N 43°21' E 004°60'0 0.0
2018-Jun-15 13:00N 43°21' E 004°60'0 0.0
2018-Jun-15 12:30N 43°21' E 004°60'0 0.1
2018-Jun-15 12:00N 43°21' E 004°60'0 0.0
2018-Jun-15 11:30N 43°21' E 004°60'0 0.0
2018-Jun-15 11:00N 43°21' E 004°60'0 0.0
2018-Jun-15 10:27N 43°21' E 004°60'0 0.2
2018-Jun-15 10:00N 43°21' E 004°60'0 0.2
2018-Jun-15 09:30N 43°21' E 004°60'2 4.2
2018-Jun-15 09:00N 43°19' E 004°60'  
2018-Jun-09 17:47N 40°47' E 027°47'412.4
2018-Jun-09 17:28N 40°48' E 027°52'1412.8
2018-Jun-09 16:22N 40°50' E 028°11'2612.3
2018-Jun-09 14:15N 40°54' E 028°45'811.8
2018-Jun-09 13:33N 40°57' E 028°55'211.8
2018-Jun-09 13:21N 40°58' E 028°57'1610.7
2018-Jun-09 11:51N 41°12' E 029°07'3 7.8
2018-Jun-09 11:30N 41°15' E 029°08'3 6.8
2018-Jun-09 11:00N 41°17' E 029°05'4 7.0
2018-Jun-09 10:30N 41°18' E 029°00'2 3.3
2018-Jun-09 10:00N 41°17' E 028°58'0 0.2
2018-Jun-09 09:29N 41°17' E 028°58'0 0.1
2018-Jun-09 08:47N 41°17' E 028°58'0 0.1
2018-Jun-09 08:29N 41°17' E 028°58'0 0.0
2018-Jun-09 07:53N 41°17' E 028°58'0 0.1
2018-Jun-09 07:29N 41°17' E 028°58'0 0.1
2018-Jun-09 06:59N 41°17' E 028°58'0 0.1
2018-Jun-09 05:05N 41°17' E 028°58'0 0.0
2018-Jun-09 03:59N 41°17' E 028°58'0 0.0
2018-Jun-09 03:29N 41°17' E 028°58'0 0.0
2018-Jun-09 02:53N 41°17' E 028°58'0 0.0
2018-Jun-09 02:26N 41°17' E 028°58'0 0.0
2018-Jun-09 01:59N 41°17' E 028°58'0 0.0
2018-Jun-09 01:26N 41°17' E 028°58'0 0.0
2018-Jun-09 00:59N 41°17' E 028°58'0 0.0
2018-Jun-08 20:53N 41°17' E 028°58'0 0.0
2018-Jun-08 19:02N 41°17' E 028°58'0 0.0
2018-Jun-08 18:59N 41°17' E 028°58'0 0.0
2018-Jun-08 16:56N 41°17' E 028°58'15 3.7
2018-Jun-08 12:53N 41°28' E 029°12'2 4.2
2018-Jun-08 12:28N 41°29' E 029°14'0 0.4
2018-Jun-08 11:49N 41°29' E 029°14'4 2.0
2018-Jun-08 09:50N 41°30' E 029°19'2212.0
2018-Jun-08 08:02N 41°38' E 029°46'312.3
2018-Jun-08 07:49N 41°40' E 029°49'412.4
2018-Jun-08 07:30N 41°41' E 029°54'812.4
2018-Jun-08 06:51N 41°45' E 030°03'412.5
2018-Jun-08 06:30N 41°47' E 030°08'612.6
2018-Jun-08 06:00N 41°50' E 030°16'612.6
2018-Jun-08 05:30N 41°53' E 030°23'1712.4
2018-Jun-08 04:05N 42°00' E 030°45'112.5
2018-Jun-08 04:00N 42°01' E 030°46'912.5
2018-Jun-08 03:15N 42°05' E 030°57'612.6
2018-Jun-08 02:47N 42°08' E 031°04'412.7
2018-Jun-08 02:30N 42°09' E 031°09'612.7
2018-Jun-08 02:00N 42°12' E 031°16'712.7
2018-Jun-08 01:28N 42°15' E 031°25'612.5
2018-Jun-08 00:59N 42°18' E 031°32'612.6
2018-Jun-08 00:30N 42°20' E 031°39'612.6
2018-Jun-08 00:00N 42°23' E 031°47'612.5
2018-Jun-07 23:30N 42°26' E 031°54'1012.3
2018-Jun-07 22:43N 42°30' E 032°06'312.1
2018-Jun-07 22:30N 42°32' E 032°09'912.2
2018-Jun-07 21:47N 42°36' E 032°20'1612.3
2018-Jun-07 20:31N 42°42' E 032°39'012.2
2018-Jun-07 20:29N 42°43' E 032°39'612.2
2018-Jun-07 20:00N 42°45' E 032°47'612.2
2018-Jun-07 19:29N 42°48' E 032°54'712.2
2018-Jun-07 18:54N 42°51' E 033°03'512.2
2018-Jun-07 18:30N 42°54' E 033°09'20712.7
2018-Jun-07 02:16N 44°27' E 037°24'412.5
2018-Jun-07 01:59N 44°28' E 037°28'612.6
2018-Jun-07 01:30N 44°31' E 037°36'611.4
2018-Jun-07 01:00N 44°35' E 037°41'  

Dump ship's entire track history